createdAt,value
2019-05-23T00:00:03.594Z,24.60
2019-05-23T00:03:00.677Z,24.70
2019-05-23T00:05:43.649Z,24.60
2019-05-23T00:08:19.047Z,24.60
2019-05-23T00:11:22.203Z,24.50
2019-05-23T00:13:57.657Z,24.50
2019-05-23T00:16:28.176Z,24.50
2019-05-23T00:18:57.238Z,24.50
2019-05-23T00:21:26.348Z,24.50
2019-05-23T00:23:55.701Z,24.50
2019-05-23T00:26:26.123Z,24.50
2019-05-23T00:29:09.640Z,24.50
2019-05-23T00:31:30.269Z,24.40
2019-05-23T00:33:59.924Z,24.40
2019-05-23T00:36:31.305Z,24.40
2019-05-23T00:39:01.721Z,24.40
2019-05-23T00:41:31.446Z,24.40
2019-05-23T00:44:00.412Z,24.40
2019-05-23T00:46:29.990Z,24.40
2019-05-23T00:48:59.002Z,24.40
2019-05-23T00:51:27.945Z,24.40
2019-05-23T00:53:57.094Z,24.40
2019-05-23T00:56:26.326Z,24.40
2019-05-23T00:58:56.397Z,24.40
2019-05-23T01:01:25.462Z,24.40
2019-05-23T01:03:54.637Z,24.40
2019-05-23T01:06:23.823Z,24.40
2019-05-23T01:08:54.893Z,24.40
2019-05-23T01:11:25.112Z,24.40
2019-05-23T01:13:54.349Z,24.30
2019-05-23T01:16:23.463Z,24.30
2019-05-23T01:19:18.748Z,24.40
2019-05-23T01:22:08.767Z,24.30
2019-05-23T01:24:43.336Z,24.30
2019-05-23T01:27:12.977Z,24.30
2019-05-23T01:29:49.596Z,24.30
2019-05-23T01:32:30.345Z,24.30
2019-05-23T01:34:59.148Z,24.30
2019-05-23T01:37:48.800Z,24.20
2019-05-23T01:40:18.110Z,24.20
2019-05-23T01:42:47.394Z,24.20
2019-05-23T01:45:17.639Z,24.20
2019-05-23T01:47:47.723Z,24.20
2019-05-23T01:50:16.713Z,24.20
2019-05-23T01:52:45.534Z,24.20
2019-05-23T01:55:15.471Z,24.20
2019-05-23T01:57:44.455Z,24.20
2019-05-23T02:00:17.805Z,24.10
2019-05-23T02:02:48.565Z,24.10
2019-05-23T02:05:18.145Z,24.10
2019-05-23T02:07:47.553Z,24.10
2019-05-23T02:10:16.421Z,24.00
2019-05-23T02:12:46.253Z,24.10
2019-05-23T02:15:15.674Z,24.00
2019-05-23T02:17:45.428Z,24.00
2019-05-23T02:20:16.371Z,24.00
2019-05-23T02:22:45.729Z,24.00
2019-05-23T02:25:16.844Z,24.00
2019-05-23T02:27:46.723Z,24.00
2019-05-23T02:30:33.202Z,24.00
2019-05-23T02:32:49.101Z,24.00
2019-05-23T02:35:18.476Z,23.90
2019-05-23T02:38:10.048Z,23.90
2019-05-23T02:40:46.432Z,23.90
2019-05-23T02:43:17.353Z,23.90
2019-05-23T02:45:48.710Z,23.90
2019-05-23T02:48:28.545Z,23.90
2019-05-23T02:51:00.883Z,23.90
2019-05-23T02:53:31.871Z,23.90
2019-05-23T02:56:01.641Z,23.80
2019-05-23T02:59:10.984Z,23.80
2019-05-23T03:02:14.911Z,23.90
2019-05-23T03:04:45.696Z,23.80
2019-05-23T03:07:14.871Z,23.70
2019-05-23T03:09:43.788Z,23.70
2019-05-23T03:12:15.366Z,23.80
2019-05-23T03:14:45.930Z,23.80
2019-05-23T03:17:16.391Z,23.80
2019-05-23T03:19:52.844Z,23.80
2019-05-23T03:22:33.825Z,23.80
2019-05-23T03:25:04.507Z,23.80
2019-05-23T03:27:37.842Z,23.80
2019-05-23T03:30:09.290Z,23.70
2019-05-23T03:32:54.538Z,23.80
2019-05-23T03:35:27.803Z,23.70
2019-05-23T03:37:57.498Z,23.70
2019-05-23T03:40:26.504Z,23.70
2019-05-23T03:42:55.939Z,23.70
2019-05-23T03:45:26.783Z,23.70
2019-05-23T03:47:55.965Z,23.70
2019-05-23T03:50:26.032Z,23.70
2019-05-23T03:52:56.927Z,23.70
2019-05-23T03:55:28.223Z,23.70
2019-05-23T03:57:57.785Z,23.70
2019-05-23T04:00:51.056Z,23.70
2019-05-23T04:03:22.889Z,23.70
2019-05-23T04:05:51.900Z,23.70
2019-05-23T04:08:20.728Z,23.70
2019-05-23T04:10:51.777Z,23.70
2019-05-23T04:13:21.619Z,23.70
2019-05-23T04:15:50.504Z,23.70
2019-05-23T04:18:19.376Z,23.80
2019-05-23T04:20:48.442Z,23.80
2019-05-23T04:23:17.808Z,23.80
2019-05-23T04:25:46.713Z,23.90
2019-05-23T04:28:16.496Z,23.90
2019-05-23T04:30:47.519Z,23.90
2019-05-23T04:33:16.947Z,24.40
2019-05-23T04:35:45.792Z,25.10
2019-05-23T04:38:15.912Z,25.70
2019-05-23T04:41:04.733Z,26.20
2019-05-23T04:43:33.582Z,26.50
2019-05-23T04:46:03.225Z,26.40
2019-05-23T04:48:32.317Z,26.20
2019-05-23T04:51:01.470Z,25.90
2019-05-23T04:53:30.542Z,25.70
2019-05-23T04:55:59.392Z,25.50
2019-05-23T04:58:28.363Z,25.30
2019-05-23T05:00:57.447Z,25.20
2019-05-23T05:03:26.563Z,25.10
2019-05-23T05:05:55.438Z,25.00
2019-05-23T05:08:24.310Z,24.90
2019-05-23T05:10:53.520Z,24.90
2019-05-23T05:13:22.476Z,24.90
2019-05-23T05:15:51.661Z,24.80
2019-05-23T05:18:20.767Z,24.80
2019-05-23T05:20:49.610Z,24.70
2019-05-23T05:23:18.405Z,24.70
2019-05-23T05:25:47.226Z,24.70
2019-05-23T05:28:16.174Z,24.70
2019-05-23T05:30:45.276Z,24.70
2019-05-23T05:33:14.073Z,24.70
2019-05-23T05:35:43.261Z,24.70
2019-05-23T05:38:12.606Z,24.70
2019-05-23T05:40:41.423Z,24.70
2019-05-23T05:43:10.521Z,24.70
2019-05-23T05:45:39.594Z,24.70
2019-05-23T05:48:08.947Z,24.70
2019-05-23T05:50:38.591Z,24.70
2019-05-23T05:53:08.983Z,24.70
2019-05-23T05:55:38.015Z,24.70
2019-05-23T05:58:07.164Z,24.70
2019-05-23T06:00:53.746Z,24.70
2019-05-23T06:03:23.110Z,24.70
2019-05-23T06:06:01.961Z,24.70
2019-05-23T06:08:31.706Z,24.70
2019-05-23T06:11:00.588Z,24.70
2019-05-23T06:13:29.468Z,24.70
2019-05-23T06:16:07.001Z,24.70
2019-05-23T06:18:36.701Z,24.70
2019-05-23T06:21:06.316Z,24.70
2019-05-23T06:23:35.460Z,24.80
2019-05-23T06:26:04.287Z,24.90
2019-05-23T06:28:52.527Z,24.90
2019-05-23T06:31:23.463Z,24.90
2019-05-23T06:33:56.016Z,24.90
2019-05-23T06:36:24.822Z,24.90
2019-05-23T06:38:55.381Z,24.90
2019-05-23T06:41:25.263Z,24.80
2019-05-23T06:43:54.813Z,24.80
2019-05-23T06:46:25.029Z,24.90
2019-05-23T06:48:54.340Z,24.90
2019-05-23T06:51:23.120Z,24.90
2019-05-23T06:53:52.320Z,24.80
2019-05-23T06:56:21.280Z,24.80
2019-05-23T06:58:50.073Z,24.80
2019-05-23T07:01:18.989Z,24.80
2019-05-23T07:03:47.779Z,24.80
2019-05-23T07:06:35.858Z,24.80
2019-05-23T07:09:10.074Z,24.80
2019-05-23T07:11:38.962Z,24.80
2019-05-23T07:14:08.008Z,24.70
2019-05-23T07:16:36.918Z,24.80
2019-05-23T07:19:05.925Z,24.80
2019-05-23T07:21:34.930Z,24.80
2019-05-23T07:24:03.798Z,24.80
2019-05-23T07:26:32.990Z,24.90
2019-05-23T07:29:01.923Z,24.90
2019-05-23T07:31:31.477Z,24.90
2019-05-23T07:34:02.532Z,24.90
2019-05-23T07:36:31.295Z,24.90
2019-05-23T07:39:00.738Z,24.80
2019-05-23T07:41:29.807Z,24.80
2019-05-23T07:43:59.004Z,24.80
2019-05-23T07:46:29.149Z,24.80
2019-05-23T07:48:58.436Z,24.70
2019-05-23T07:51:29.716Z,24.70
2019-05-23T07:54:15.925Z,24.70
2019-05-23T07:56:44.978Z,24.70
2019-05-23T07:59:13.772Z,24.80
2019-05-23T08:01:45.755Z,24.70
2019-05-23T08:04:22.813Z,24.70
2019-05-23T08:06:48.814Z,24.70
2019-05-23T08:09:18.232Z,24.70
2019-05-23T08:11:47.529Z,24.70
2019-05-23T08:14:16.674Z,24.70
2019-05-23T08:16:45.890Z,24.70
2019-05-23T08:19:19.385Z,24.70
2019-05-23T08:21:45.598Z,24.70
2019-05-23T08:24:14.591Z,24.70
2019-05-23T08:26:45.026Z,24.70
2019-05-23T08:29:29.494Z,24.70
2019-05-23T08:31:44.753Z,24.70
2019-05-23T08:34:15.050Z,24.70
2019-05-23T08:36:44.436Z,24.70
2019-05-23T08:39:14.523Z,24.70
2019-05-23T08:41:43.411Z,24.70
2019-05-23T08:44:12.225Z,24.70
2019-05-23T08:46:41.376Z,24.70
2019-05-23T08:49:10.407Z,24.70
2019-05-23T08:51:39.227Z,24.70
2019-05-23T08:54:08.024Z,24.70
2019-05-23T08:56:56.148Z,24.70
2019-05-23T08:59:25.289Z,24.70
2019-05-23T09:01:54.093Z,24.70
2019-05-23T09:04:23.462Z,24.70
2019-05-23T09:06:52.585Z,24.60
2019-05-23T09:09:29.501Z,24.60
2019-05-23T09:11:52.517Z,24.60
2019-05-23T09:14:22.244Z,24.60
2019-05-23T09:16:51.105Z,24.60
2019-05-23T09:19:19.978Z,24.60
2019-05-23T09:21:48.874Z,24.60
2019-05-23T09:24:17.769Z,24.60
2019-05-23T09:26:48.349Z,24.70
2019-05-23T09:29:17.520Z,24.70
2019-05-23T09:31:46.589Z,24.70
2019-05-23T09:34:15.552Z,24.80
2019-05-23T09:36:44.436Z,24.80
2019-05-23T09:39:15.413Z,24.80
2019-05-23T09:41:44.893Z,24.80
2019-05-23T09:44:13.676Z,24.90
2019-05-23T09:46:42.477Z,24.90
2019-05-23T09:49:11.601Z,24.90
2019-05-23T09:51:41.148Z,24.90
2019-05-23T09:54:10.030Z,24.90
2019-05-23T09:56:39.587Z,24.90
2019-05-23T09:59:08.511Z,24.90
2019-05-23T10:01:37.643Z,25.00
2019-05-23T10:04:06.705Z,25.00
2019-05-23T10:06:35.853Z,25.00
2019-05-23T10:09:07.411Z,25.00
2019-05-23T10:11:36.337Z,25.00
2019-05-23T10:14:07.315Z,25.10
2019-05-23T10:16:36.396Z,25.00
2019-05-23T10:19:05.611Z,25.10
2019-05-23T10:21:34.720Z,25.10
2019-05-23T10:24:03.609Z,25.10
2019-05-23T10:26:32.456Z,25.20
2019-05-23T10:29:01.300Z,25.20
2019-05-23T10:31:30.272Z,25.20
2019-05-23T10:33:59.377Z,25.20
2019-05-23T10:36:28.315Z,25.20
2019-05-23T10:38:57.505Z,25.20
2019-05-23T10:41:26.293Z,25.20
2019-05-23T10:43:55.386Z,25.20
2019-05-23T10:46:24.337Z,25.20
2019-05-23T10:48:53.508Z,25.20
2019-05-23T10:51:22.381Z,25.30
2019-05-23T10:53:51.378Z,25.30
2019-05-23T10:56:39.512Z,25.30
2019-05-23T10:59:08.376Z,25.30
2019-05-23T11:01:37.468Z,25.30
2019-05-23T11:04:06.780Z,25.30
2019-05-23T11:06:35.804Z,25.40
2019-05-23T11:09:07.894Z,25.40
2019-05-23T11:11:37.360Z,25.40
2019-05-23T11:14:08.554Z,25.40
2019-05-23T11:16:37.848Z,25.40
2019-05-23T11:19:07.968Z,25.50
2019-05-23T11:21:36.765Z,25.50
2019-05-23T11:24:06.256Z,25.50
2019-05-23T11:26:35.367Z,25.50
2019-05-23T11:29:04.189Z,25.50
2019-05-23T11:31:33.279Z,25.50
2019-05-23T11:34:02.233Z,25.50
2019-05-23T11:36:36.164Z,25.50
2019-05-23T11:39:02.121Z,25.50
2019-05-23T11:41:31.778Z,25.60
2019-05-23T11:44:00.577Z,25.60
2019-05-23T11:46:32.667Z,25.60
2019-05-23T11:49:02.089Z,25.60
2019-05-23T11:51:31.055Z,25.60
2019-05-23T11:54:07.834Z,25.70
2019-05-23T11:56:30.588Z,25.70
2019-05-23T11:59:01.668Z,25.80
2019-05-23T12:01:44.623Z,25.80
2019-05-23T12:04:21.255Z,25.80
2019-05-23T12:07:02.517Z,25.80
2019-05-23T12:09:31.488Z,25.80
2019-05-23T12:12:00.331Z,25.80
2019-05-23T12:14:29.333Z,25.80
2019-05-23T12:16:58.332Z,25.80
2019-05-23T12:19:27.193Z,25.90
2019-05-23T12:21:56.422Z,25.90
2019-05-23T12:24:25.327Z,25.90
2019-05-23T12:26:54.192Z,25.90
2019-05-23T12:29:23.025Z,26.00
2019-05-23T12:31:51.902Z,26.00
2019-05-23T12:34:20.706Z,26.00
2019-05-23T12:36:49.607Z,26.00
2019-05-23T12:39:18.584Z,26.00
2019-05-23T12:41:47.368Z,26.00
2019-05-23T12:44:17.802Z,26.00
2019-05-23T12:46:47.060Z,26.10
2019-05-23T12:49:33.083Z,26.10
2019-05-23T12:52:02.525Z,26.10
2019-05-23T12:54:32.727Z,26.10
2019-05-23T12:57:01.778Z,26.10
2019-05-23T12:59:31.141Z,26.20
2019-05-23T13:02:01.637Z,26.20
2019-05-23T13:04:30.562Z,26.20
2019-05-23T13:06:59.530Z,26.20
2019-05-23T13:09:28.596Z,26.30
2019-05-23T13:11:57.511Z,26.30
2019-05-23T13:14:26.572Z,26.30
2019-05-23T13:17:00.333Z,26.30
2019-05-23T13:19:26.757Z,26.30
2019-05-23T13:21:55.579Z,26.40
2019-05-23T13:24:25.364Z,26.40
2019-05-23T13:26:54.239Z,26.40
2019-05-23T13:29:24.646Z,26.50
2019-05-23T13:31:54.404Z,26.50
2019-05-23T13:34:23.325Z,26.50
2019-05-23T13:36:52.172Z,26.50
2019-05-23T13:39:21.495Z,26.50
2019-05-23T13:41:50.372Z,26.50
2019-05-23T13:44:33.088Z,26.50
2019-05-23T13:46:50.067Z,26.50
2019-05-23T13:49:19.018Z,26.60
2019-05-23T13:51:48.073Z,26.60
2019-05-23T13:54:17.119Z,26.60
2019-05-23T13:56:47.719Z,26.60
2019-05-23T13:59:37.237Z,26.70
2019-05-23T14:02:08.873Z,26.70
2019-05-23T14:04:38.060Z,26.70
2019-05-23T14:07:08.533Z,26.70
2019-05-23T14:09:38.195Z,26.70
2019-05-23T14:12:20.555Z,26.70
2019-05-23T14:14:38.375Z,26.80
2019-05-23T14:17:35.357Z,26.80
2019-05-23T14:20:04.959Z,26.80
2019-05-23T14:22:37.077Z,26.80
2019-05-23T14:25:05.956Z,26.90
2019-05-23T14:27:59.891Z,26.90
2019-05-23T14:31:00.321Z,26.90
2019-05-23T14:33:51.415Z,26.90
2019-05-23T14:36:26.157Z,26.90
2019-05-23T14:38:55.549Z,26.90
2019-05-23T14:41:24.410Z,26.90
2019-05-23T14:43:54.460Z,26.90
2019-05-23T14:46:23.398Z,27.00
2019-05-23T14:49:03.193Z,27.00
2019-05-23T14:51:47.764Z,27.00
2019-05-23T14:54:28.373Z,27.00
2019-05-23T14:56:57.416Z,27.10
2019-05-23T14:59:27.117Z,27.10
2019-05-23T15:01:56.154Z,27.00
2019-05-23T15:04:25.426Z,27.10
2019-05-23T15:06:56.036Z,27.10
2019-05-23T15:09:25.093Z,27.10
2019-05-23T15:11:54.315Z,27.10
2019-05-23T15:14:23.135Z,27.20
2019-05-23T15:16:53.024Z,27.20
2019-05-23T15:19:40.094Z,27.20
2019-05-23T15:21:52.562Z,27.20
2019-05-23T15:24:21.639Z,27.20
2019-05-23T15:26:50.632Z,27.20
2019-05-23T15:29:19.461Z,27.20
2019-05-23T15:32:01.575Z,27.20
2019-05-23T15:34:19.012Z,27.30
2019-05-23T15:36:47.989Z,27.30
2019-05-23T15:39:18.336Z,27.30
2019-05-23T15:41:47.163Z,27.30
2019-05-23T15:44:25.871Z,27.30
2019-05-23T15:46:46.841Z,27.30
2019-05-23T15:49:15.769Z,27.30
2019-05-23T15:52:00.435Z,27.30
2019-05-23T15:54:44.651Z,27.30
2019-05-23T15:57:21.927Z,27.30
2019-05-23T16:00:12.660Z,27.30
2019-05-23T16:02:52.605Z,27.30
2019-05-23T16:05:21.422Z,27.30
2019-05-23T16:07:50.444Z,27.30
2019-05-23T16:10:19.963Z,27.30
2019-05-23T16:12:48.890Z,27.40
2019-05-23T16:15:17.788Z,27.30
2019-05-23T16:17:46.654Z,27.30
2019-05-23T16:20:15.652Z,27.30
2019-05-23T16:22:44.897Z,27.40
2019-05-23T16:25:13.787Z,27.30
2019-05-23T16:27:43.020Z,27.30
2019-05-23T16:30:11.900Z,27.40
2019-05-23T16:32:46.575Z,27.30
2019-05-23T16:35:14.284Z,27.30
2019-05-23T16:37:43.148Z,27.40
2019-05-23T16:40:12.101Z,27.40
2019-05-23T16:42:41.055Z,27.50
2019-05-23T16:45:09.998Z,27.50
2019-05-23T16:47:39.199Z,27.60
2019-05-23T16:50:08.082Z,27.70
2019-05-23T16:52:37.251Z,27.80
2019-05-23T16:55:09.904Z,27.90
2019-05-23T16:57:46.979Z,28.00
2019-05-23T17:00:53.344Z,28.10
2019-05-23T17:03:44.208Z,28.20
2019-05-23T17:06:44.233Z,28.20
2019-05-23T17:09:41.535Z,28.20
2019-05-23T17:12:35.727Z,28.10
2019-05-23T17:15:16.689Z,28.00
2019-05-23T17:18:15.126Z,27.90
2019-05-23T17:20:59.889Z,27.90
2019-05-23T17:23:47.566Z,27.80
2019-05-23T17:26:42.468Z,27.70
2019-05-23T17:29:28.583Z,27.70
2019-05-23T17:31:58.590Z,27.70
2019-05-23T17:34:28.230Z,27.70
2019-05-23T17:36:57.899Z,27.70
2019-05-23T17:39:28.455Z,27.70
2019-05-23T17:41:58.383Z,27.70
2019-05-23T17:44:28.075Z,27.60
2019-05-23T17:46:57.647Z,27.60
2019-05-23T17:49:27.305Z,27.60
2019-05-23T17:51:56.821Z,27.60
2019-05-23T17:54:27.011Z,27.50
2019-05-23T17:56:56.711Z,27.50
2019-05-23T17:59:26.936Z,27.40
2019-05-23T18:01:56.642Z,27.40
2019-05-23T18:04:26.350Z,27.40
2019-05-23T18:06:56.900Z,27.30
2019-05-23T18:09:27.014Z,27.30
2019-05-23T18:11:56.851Z,27.30
2019-05-23T18:14:26.595Z,27.20
2019-05-23T18:16:56.365Z,27.30
2019-05-23T18:19:26.451Z,27.20
2019-05-23T18:21:56.372Z,27.20
2019-05-23T18:24:26.678Z,27.20
2019-05-23T18:26:56.867Z,27.20
2019-05-23T18:29:26.827Z,27.20
2019-05-23T18:31:56.685Z,27.20
2019-05-23T18:34:26.504Z,27.20
2019-05-23T18:36:56.154Z,27.20
2019-05-23T18:39:25.978Z,27.20
2019-05-23T18:41:55.850Z,27.20
2019-05-23T18:44:25.677Z,27.20
2019-05-23T18:46:57.337Z,27.10
2019-05-23T18:49:28.636Z,27.20
2019-05-23T18:51:58.171Z,27.20
2019-05-23T18:54:27.725Z,27.20
2019-05-23T18:56:57.071Z,27.20
2019-05-23T18:59:26.546Z,27.20
2019-05-23T19:01:58.162Z,27.20
2019-05-23T19:04:27.602Z,27.20
2019-05-23T19:06:57.668Z,27.10
2019-05-23T19:09:28.341Z,27.10
2019-05-23T19:11:58.698Z,27.10
2019-05-23T19:14:27.648Z,27.10
2019-05-23T19:16:57.806Z,27.10
2019-05-23T19:19:27.596Z,27.00
2019-05-23T19:21:56.904Z,27.00
2019-05-23T19:24:26.098Z,27.00
2019-05-23T19:26:57.053Z,27.00
2019-05-23T19:29:26.395Z,27.00
2019-05-23T19:31:55.793Z,26.90
2019-05-23T19:34:24.898Z,26.90
2019-05-23T19:36:54.312Z,26.80
2019-05-23T19:39:23.774Z,26.90
2019-05-23T19:41:53.505Z,26.90
2019-05-23T19:44:22.576Z,26.80
2019-05-23T19:46:51.868Z,26.80
2019-05-23T19:49:20.875Z,26.70
2019-05-23T19:51:49.929Z,26.70
2019-05-23T19:54:19.651Z,26.60
2019-05-23T19:56:48.688Z,26.60
2019-05-23T19:59:20.772Z,26.60
2019-05-23T20:02:11.831Z,26.60
2019-05-23T20:04:44.514Z,26.60
2019-05-23T20:07:15.575Z,26.60
2019-05-23T20:09:45.782Z,26.60
2019-05-23T20:12:14.901Z,26.50
2019-05-23T20:14:44.485Z,26.60
2019-05-23T20:17:13.611Z,26.70
2019-05-23T20:19:44.095Z,26.70
2019-05-23T20:22:13.085Z,26.80
2019-05-23T20:24:42.135Z,26.80
2019-05-23T20:27:11.000Z,26.90
2019-05-23T20:29:39.894Z,26.90
2019-05-23T20:32:08.972Z,26.90
2019-05-23T20:34:37.988Z,26.90
2019-05-23T20:37:07.070Z,26.90
2019-05-23T20:39:36.213Z,27.00
2019-05-23T20:42:11.445Z,26.90
2019-05-23T20:44:36.098Z,27.00
2019-05-23T20:47:06.221Z,27.00
2019-05-23T20:49:35.136Z,27.00
2019-05-23T20:52:04.016Z,27.00
2019-05-23T20:54:33.664Z,27.00
2019-05-23T20:57:03.541Z,27.10
2019-05-23T20:59:32.868Z,27.00
2019-05-23T21:02:01.831Z,27.00
2019-05-23T21:04:34.269Z,27.00
2019-05-23T21:07:03.576Z,27.00
2019-05-23T21:09:32.566Z,27.00
2019-05-23T21:12:01.581Z,26.90
2019-05-23T21:14:30.477Z,26.90
2019-05-23T21:16:59.306Z,26.90
2019-05-23T21:19:28.154Z,26.90
2019-05-23T21:21:57.091Z,27.00
2019-05-23T21:24:29.474Z,27.00
2019-05-23T21:26:58.759Z,27.00
2019-05-23T21:29:27.752Z,27.00
2019-05-23T21:31:56.667Z,27.00
2019-05-23T21:34:25.936Z,27.00
2019-05-23T21:36:54.951Z,27.00
2019-05-23T21:39:24.251Z,27.00
2019-05-23T21:41:54.399Z,27.00
2019-05-23T21:44:23.276Z,27.00
2019-05-23T21:46:52.345Z,26.90
2019-05-23T21:49:21.183Z,26.90
2019-05-23T21:51:51.886Z,26.90
2019-05-23T21:54:20.665Z,26.90
2019-05-23T21:56:49.636Z,26.90
2019-05-23T21:59:18.468Z,26.90
2019-05-23T22:02:05.083Z,26.90
2019-05-23T22:04:49.861Z,26.90
2019-05-23T22:07:18.731Z,26.90
2019-05-23T22:09:47.715Z,26.90
2019-05-23T22:12:17.929Z,26.90
2019-05-23T22:14:47.289Z,26.80
2019-05-23T22:17:17.167Z,26.70
2019-05-23T22:19:46.480Z,26.70
2019-05-23T22:22:16.103Z,26.70
2019-05-23T22:24:44.986Z,26.70
2019-05-23T22:27:14.648Z,26.60
2019-05-23T22:29:43.919Z,26.60
2019-05-23T22:32:14.492Z,26.60
2019-05-23T22:35:03.093Z,26.50
2019-05-23T22:37:32.209Z,26.50
2019-05-23T22:40:01.208Z,26.50
2019-05-23T22:42:31.423Z,26.50
2019-05-23T22:45:00.250Z,26.40
2019-05-23T22:47:48.523Z,26.40
2019-05-23T22:50:17.509Z,26.40
2019-05-23T22:52:46.781Z,26.40
2019-05-23T22:55:15.705Z,26.40
2019-05-23T22:57:44.573Z,26.40
2019-05-23T23:00:15.129Z,26.40
2019-05-23T23:02:46.089Z,26.40
2019-05-23T23:05:15.547Z,26.40
2019-05-23T23:07:44.444Z,26.40
2019-05-23T23:10:15.476Z,26.40
2019-05-23T23:12:44.381Z,26.30
2019-05-23T23:15:13.306Z,26.30
2019-05-23T23:17:42.358Z,26.30
2019-05-23T23:20:11.300Z,26.30
2019-05-23T23:22:40.231Z,26.30
2019-05-23T23:25:09.130Z,26.30
2019-05-23T23:27:38.001Z,26.30
2019-05-23T23:30:07.583Z,26.20
2019-05-23T23:32:36.527Z,26.20
2019-05-23T23:35:05.704Z,26.20
2019-05-23T23:37:35.114Z,26.20
2019-05-23T23:40:04.686Z,26.20
2019-05-23T23:42:34.154Z,26.20
2019-05-23T23:45:23.545Z,26.20
2019-05-23T23:48:10.637Z,26.20
2019-05-23T23:51:00.956Z,26.20
2019-05-23T23:53:48.073Z,26.10
2019-05-23T23:56:34.636Z,26.10
2019-05-23T23:59:02.750Z,26.10
